Time;durP1;ratioP1;P1;durP2;ratioP2;P2;SDS_P1;SDS_P2;PMS_P1;PMS_P2;Temp;Humidity;BMP_temperature;BMP_pressure;BME280_temperature;BME280_humidity;BME280_pressure;Samples;Min_cycle;Max_cycle;Signal;HPM_P1;HPM_P2
2021/08/04 00:06:19;;;;;;;7.90;4.73;;;;;;;15.01;100.00;100259.91;714149;1200;113942;-75
2021/08/04 00:21:21;;;;;;;7.18;3.03;;;;;;;14.83;100.00;100236.30;714228;1200;116078;-75
2021/08/04 00:36:23;;;;;;;7.87;4.03;;;;;;;14.88;100.00;100239.27;714513;1202;114546;-75
2021/08/04 00:51:26;;;;;;;5.50;4.08;;;;;;;14.74;100.00;100243.37;715110;1200;115306;-74
2021/08/04 01:06:47;;;;;;;6.18;3.93;;;;;;;14.67;100.00;100245.02;714374;1176;115395;-76
2021/08/04 01:21:56;;;;;;;6.00;3.98;;;;;;;14.37;100.00;100226.13;714489;1205;114409;-75
2021/08/04 01:36:59;;;;;;;7.00;4.20;;;;;;;14.26;100.00;100216.70;715451;1200;115415;-75
2021/08/04 01:52:02;;;;;;;11.17;4.80;;;;;;;14.07;100.00;100213.34;714497;1200;115745;-77
2021/08/04 02:07:10;;;;;;;4.30;3.15;;;;;;;13.65;100.00;100233.42;715215;1176;114631;-74
2021/08/04 02:22:25;;;;;;;6.17;3.30;;;;;;;13.73;100.00;100239.73;714651;1200;115658;-76
2021/08/04 02:37:29;;;;;;;7.83;3.90;;;;;;;13.78;100.00;100226.91;714317;1192;114871;-77
2021/08/04 02:52:32;;;;;;;9.78;4.60;;;;;;;13.98;100.00;100222.22;714168;1200;114527;-75
2021/08/04 03:07:34;;;;;;;7.87;4.70;;;;;;;14.12;100.00;100218.13;714871;1200;114005;-86
2021/08/04 03:22:42;;;;;;;9.05;4.78;;;;;;;14.11;100.00;100224.41;715625;1177;114436;-85
2021/08/04 03:37:46;;;;;;;10.35;4.33;;;;;;;14.18;100.00;100221.96;715232;1205;115301;-74
2021/08/04 03:52:48;;;;;;;6.78;4.28;;;;;;;14.53;100.00;100235.88;714586;1177;114976;-74
2021/08/04 04:07:50;;;;;;;9.93;4.58;;;;;;;14.64;100.00;100223.23;714381;1203;114582;-75
2021/08/04 04:22:52;;;;;;;10.33;5.57;;;;;;;14.97;100.00;100217.14;714540;1205;114024;-75
2021/08/04 04:37:54;;;;;;;9.47;3.90;;;;;;;15.53;100.00;100204.00;714309;1177;114144;-75
2021/08/04 04:52:56;;;;;;;7.35;4.23;;;;;;;16.20;100.00;100223.94;714256;1200;114142;-76
2021/08/04 05:07:58;;;;;;;7.93;4.68;;;;;;;16.38;100.00;100239.56;714124;1178;114003;-74
2021/08/04 05:23:00;;;;;;;17.63;8.18;;;;;;;16.86;100.00;100263.24;714311;1204;114533;-75
2021/08/04 05:38:03;;;;;;;7.30;3.78;;;;;;;17.24;100.00;100263.30;714293;1176;114150;-76
2021/08/04 05:53:05;;;;;;;14.10;3.25;;;;;;;17.44;100.00;100270.75;714242;1202;114800;-76
2021/08/04 06:08:12;;;;;;;7.18;3.20;;;;;;;17.85;100.00;100288.08;714279;1205;115867;-74
2021/08/04 06:23:15;;;;;;;5.10;3.18;;;;;;;18.07;100.00;100276.56;714451;1175;113993;-76
2021/08/04 06:38:17;;;;;;;6.63;3.38;;;;;;;18.71;100.00;100274.22;714490;1200;114395;-80
2021/08/04 06:53:19;;;;;;;7.45;3.35;;;;;;;19.21;99.69;100275.10;716702;1203;114831;-80
2021/08/04 07:08:21;;;;;;;7.10;3.00;;;;;;;19.63;97.76;100277.87;716678;1206;114663;-80
2021/08/04 07:23:31;;;;;;;5.33;2.83;;;;;;;20.03;95.21;100287.94;716811;1200;114255;-80
2021/08/04 07:38:33;;;;;;;4.55;2.50;;;;;;;20.34;93.80;100314.10;714558;1203;113895;-81
2021/08/04 07:53:35;;;;;;;4.88;2.40;;;;;;;20.73;92.44;100306.45;716058;1193;113711;-80
2021/08/04 08:08:38;;;;;;;6.40;2.80;;;;;;;20.94;91.85;100316.13;716672;1202;114613;-79
2021/08/04 08:23:40;;;;;;;9.23;3.63;;;;;;;20.74;92.09;100311.58;715028;1187;113675;-79
2021/08/04 08:38:43;;;;;;;10.40;3.55;;;;;;;21.04;91.63;100305.09;714821;1177;114299;-79
2021/08/04 08:53:47;;;;;;;11.73;3.55;;;;;;;21.36;90.59;100316.77;714909;1200;113992;-79
2021/08/04 09:08:49;;;;;;;9.63;3.73;;;;;;;21.36;88.84;100308.77;714880;1178;115722;-77
2021/08/04 09:23:55;;;;;;;6.13;3.45;;;;;;;21.73;88.25;100305.69;714926;1202;115044;-77
2021/08/04 09:39:06;;;;;;;4.13;3.43;;;;;;;22.20;87.43;100298.36;714922;1178;113840;-79
2021/08/04 09:54:14;;;;;;;5.40;3.20;;;;;;;23.21;85.00;100298.62;715177;1206;114625;-79
2021/08/04 10:09:18;;;;;;;11.03;4.47;;;;;;;23.91;81.61;100296.75;714724;1203;115023;-79
2021/08/04 10:24:21;;;;;;;7.28;4.38;;;;;;;24.40;80.48;100283.37;714850;1202;115535;-77
2021/08/04 10:39:26;;;;;;;6.33;4.25;;;;;;;25.11;78.71;100288.14;720531;1188;113838;-81
2021/08/04 10:54:30;;;;;;;5.85;4.15;;;;;;;25.34;76.15;100277.45;715366;1202;114405;-80
2021/08/04 11:09:34;;;;;;;5.33;3.35;;;;;;;25.96;71.05;100272.58;717336;1200;113954;-80
2021/08/04 11:24:56;;;;;;;8.25;3.70;;;;;;;27.47;66.90;100251.55;718083;1200;114918;-80
2021/08/04 11:40:02;;;;;;;8.70;3.08;;;;;;;26.31;65.92;100242.92;718091;1200;114094;-85
2021/08/04 11:55:10;;;;;;;4.63;2.60;;;;;;;25.90;66.85;100225.99;717684;1200;113884;-83
2021/08/04 12:10:22;;;;;;;5.65;2.75;;;;;;;25.47;65.48;100220.03;717572;1205;114192;-88
2021/08/04 12:25:24;;;;;;;5.23;2.77;;;;;;;24.66;68.13;100239.30;717794;1178;113817;-80
2021/08/04 12:40:27;;;;;;;3.55;2.45;;;;;;;23.88;72.33;100246.28;715647;1200;115179;-78
2021/08/04 12:55:31;;;;;;;5.20;2.73;;;;;;;24.86;71.77;100248.91;716116;1178;114101;-78
2021/08/04 13:10:36;;;;;;;8.58;2.70;;;;;;;24.99;70.15;100239.84;716540;1200;115107;-79
2021/08/04 13:25:46;;;;;;;15.30;9.93;;;;;;;25.62;68.73;100246.38;718351;1203;115421;-83
2021/08/04 13:40:49;;;;;;;10.80;5.70;;;;;;;24.90;67.09;100228.63;718070;1200;115234;-81
2021/08/04 13:55:54;;;;;;;5.73;2.33;;;;;;;25.12;66.35;100231.55;718058;1177;114413;-82
2021/08/04 14:11:00;;;;;;;5.85;1.95;;;;;;;24.78;64.72;100257.30;718431;1200;115142;-83
2021/08/04 14:26:03;;;;;;;4.65;2.73;;;;;;;25.31;68.53;100251.03;717512;1199;114868;-82
2021/08/04 14:41:06;;;;;;;4.37;2.77;;;;;;;27.64;62.62;100232.64;717841;1200;114538;-79
2021/08/04 14:56:11;;;;;;;8.90;5.07;;;;;;;26.19;60.46;100218.78;717745;1191;114114;-79
2021/08/04 15:11:14;;;;;;;6.53;2.83;;;;;;;24.83;62.77;100220.69;715594;1189;113811;-78
2021/08/04 15:26:17;;;;;;;5.33;2.38;;;;;;;24.24;64.17;100217.82;715624;1199;113773;-88
2021/08/04 15:41:20;;;;;;;1.88;1.50;;;;;;;24.67;64.71;100207.96;717987;1200;115342;-86
2021/08/04 15:56:23;;;;;;;4.23;2.73;;;;;;;25.56;63.18;100210.55;716369;1200;115323;-77
2021/08/04 16:11:26;;;;;;;6.50;4.73;;;;;;;25.60;62.38;100213.56;715847;1179;114306;-76
2021/08/04 16:26:29;;;;;;;14.90;9.83;;;;;;;24.89;62.16;100205.52;718039;1200;113828;-88
2021/08/04 16:41:32;;;;;;;20.50;11.93;;;;;;;24.29;62.69;100196.52;716454;1182;114031;-76
2021/08/04 16:56:35;;;;;;;8.38;5.93;;;;;;;24.43;63.99;100195.28;715133;1177;114682;-75
2021/08/04 17:11:38;;;;;;;9.05;3.63;;;;;;;23.65;65.51;100198.75;715359;1200;113809;-76
2021/08/04 17:26:41;;;;;;;13.63;6.93;;;;;;;22.77;68.17;100212.94;715557;1202;114650;-76
2021/08/04 17:41:44;;;;;;;12.20;3.78;;;;;;;22.08;71.29;100227.95;715797;1178;114031;-75
2021/08/04 17:56:47;;;;;;;7.93;3.48;;;;;;;20.98;78.96;100224.05;715171;1200;114142;-75
2021/08/04 18:11:49;;;;;;;13.75;5.90;;;;;;;20.42;83.48;100230.53;715402;1176;114258;-77
2021/08/04 18:26:52;;;;;;;9.13;5.65;;;;;;;20.10;85.61;100236.37;715416;1194;114241;-76
2021/08/04 18:41:54;;;;;;;10.93;6.60;;;;;;;19.59;88.33;100269.45;715749;1178;114875;-76
2021/08/04 18:56:56;;;;;;;6.80;3.73;;;;;;;19.08;91.71;100278.50;715079;1177;114640;-76
2021/08/04 19:11:59;;;;;;;7.83;4.18;;;;;;;18.84;93.90;100290.28;715356;1203;113667;-75
2021/08/04 19:27:02;;;;;;;4.70;3.55;;;;;;;18.45;96.93;100287.02;715730;1199;114361;-77
2021/08/04 19:42:05;;;;;;;7.07;4.03;;;;;;;18.24;98.86;100297.61;715661;1200;114347;-75
2021/08/04 19:57:07;;;;;;;8.55;6.33;;;;;;;18.24;100.00;100298.42;715888;1200;113758;-77
2021/08/04 20:12:10;;;;;;;23.60;12.50;;;;;;;18.35;100.00;100298.95;715765;1182;114213;-77
2021/08/04 20:27:12;;;;;;;6.73;4.57;;;;;;;18.18;100.00;100293.03;715693;1203;114963;-76
2021/08/04 20:42:14;;;;;;;6.80;4.65;;;;;;;18.05;100.00;100283.87;715771;1177;113971;-77
2021/08/04 20:57:17;;;;;;;8.55;5.33;;;;;;;18.00;100.00;100280.97;716159;1175;113918;-77
2021/08/04 21:12:19;;;;;;;14.43;8.08;;;;;;;17.85;100.00;100286.23;715244;1200;114895;-77
2021/08/04 21:27:21;;;;;;;9.50;5.73;;;;;;;17.55;100.00;100274.78;715504;1199;114883;-77
2021/08/04 21:42:24;;;;;;;7.77;4.73;;;;;;;17.27;100.00;100270.08;715340;1176;113989;-78
2021/08/04 21:57:26;;;;;;;10.83;7.30;;;;;;;16.96;100.00;100266.52;715510;1176;113946;-78
2021/08/04 22:12:28;;;;;;;8.53;6.50;;;;;;;16.83;100.00;100260.95;715377;1191;116326;-78
2021/08/04 22:27:30;;;;;;;8.45;5.68;;;;;;;16.70;100.00;100261.54;715277;1200;115661;-77
2021/08/04 22:42:33;;;;;;;7.50;5.00;;;;;;;16.49;100.00;100264.81;715452;1200;114916;-78
2021/08/04 22:57:35;;;;;;;12.80;6.15;;;;;;;16.39;100.00;100259.75;714761;1177;114107;-77
2021/08/04 23:12:37;;;;;;;14.18;7.98;;;;;;;16.27;100.00;100250.53;715287;1202;114734;-77
2021/08/04 23:27:40;;;;;;;7.63;6.23;;;;;;;15.72;100.00;100244.30;715482;1203;114282;-77
2021/08/04 23:42:42;;;;;;;9.75;6.63;;;;;;;15.57;100.00;100237.06;715797;1186;113820;-79
2021/08/04 23:57:44;;;;;;;9.38;6.30;;;;;;;15.37;100.00;100236.58;715097;1179;113826;-77
